sensor_id;sensor_type;location;lat;lon;timestamp;pressure;altitude;pressure_sealevel;temperature;humidity
68075;BME280;54864;52.002;5.468;2023-09-18T00:00:10;100468.91;;;20.67;94.98
68075;BME280;54864;52.002;5.468;2023-09-18T00:01:12;100470.72;;;20.67;94.76
68075;BME280;54864;52.002;5.468;2023-09-18T00:02:14;100469.47;;;20.61;94.50
68075;BME280;54864;52.002;5.468;2023-09-18T00:03:24;100468.19;;;20.65;94.43
68075;BME280;54864;52.002;5.468;2023-09-18T00:04:32;100454.81;;;20.55;95.66
68075;BME280;54864;52.002;5.468;2023-09-18T00:05:32;100458.50;;;20.54;96.11
68075;BME280;54864;52.002;5.468;2023-09-18T00:06:34;100452.00;;;20.57;96.35
68075;BME280;54864;52.002;5.468;2023-09-18T00:07:35;100455.53;;;20.57;96.63
68075;BME280;54864;52.002;5.468;2023-09-18T00:08:39;100450.44;;;20.64;96.21
68075;BME280;54864;52.002;5.468;2023-09-18T00:09:39;100446.47;;;20.68;95.82
68075;BME280;54864;52.002;5.468;2023-09-18T00:10:42;100444.50;;;20.70;95.34
68075;BME280;54864;52.002;5.468;2023-09-18T00:11:43;100441.53;;;20.73;94.96
68075;BME280;54864;52.002;5.468;2023-09-18T00:12:46;100429.97;;;20.73;94.62
68075;BME280;54864;52.002;5.468;2023-09-18T00:13:47;100424.19;;;20.77;94.24
68075;BME280;54864;52.002;5.468;2023-09-18T00:14:49;100426.72;;;20.79;93.67
68075;BME280;54864;52.002;5.468;2023-09-18T00:15:54;100417.84;;;20.78;93.39
68075;BME280;54864;52.002;5.468;2023-09-18T00:17:03;100425.03;;;20.78;93.20
68075;BME280;54864;52.002;5.468;2023-09-18T00:18:04;100422.78;;;20.73;93.45
68075;BME280;54864;52.002;5.468;2023-09-18T00:19:05;100420.81;;;20.75;93.35
68075;BME280;54864;52.002;5.468;2023-09-18T00:20:07;100415.59;;;20.74;93.89
68075;BME280;54864;52.002;5.468;2023-09-18T00:21:10;100416.56;;;20.73;93.93
68075;BME280;54864;52.002;5.468;2023-09-18T00:22:10;100412.50;;;20.69;94.18
68075;BME280;54864;52.002;5.468;2023-09-18T00:23:13;100412.34;;;20.70;93.87
68075;BME280;54864;52.002;5.468;2023-09-18T00:24:16;100414.63;;;20.65;94.52
68075;BME280;54864;52.002;5.468;2023-09-18T00:25:18;100401.81;;;20.59;95.19
68075;BME280;54864;52.002;5.468;2023-09-18T00:26:19;100404.19;;;20.62;94.95
68075;BME280;54864;52.002;5.468;2023-09-18T00:27:21;100407.28;;;20.67;94.76
68075;BME280;54864;52.002;5.468;2023-09-18T00:28:23;100399.81;;;20.71;94.06
68075;BME280;54864;52.002;5.468;2023-09-18T00:29:25;100404.31;;;20.70;93.94
68075;BME280;54864;52.002;5.468;2023-09-18T00:30:26;100390.78;;;20.72;93.71
68075;BME280;54864;52.002;5.468;2023-09-18T00:31:28;100387.94;;;20.73;93.34
68075;BME280;54864;52.002;5.468;2023-09-18T00:32:34;100389.38;;;20.68;93.27
68075;BME280;54864;52.002;5.468;2023-09-18T00:33:36;100396.28;;;20.70;93.44
68075;BME280;54864;52.002;5.468;2023-09-18T00:34:37;100390.38;;;20.67;93.25
68075;BME280;54864;52.002;5.468;2023-09-18T00:35:45;100390.91;;;20.70;93.28
68075;BME280;54864;52.002;5.468;2023-09-18T00:36:46;100389.97;;;20.62;93.65
68075;BME280;54864;52.002;5.468;2023-09-18T00:37:48;100387.00;;;20.55;94.40
68075;BME280;54864;52.002;5.468;2023-09-18T00:38:48;100385.63;;;20.51;95.10
68075;BME280;54864;52.002;5.468;2023-09-18T00:39:53;100381.38;;;20.58;94.86
68075;BME280;54864;52.002;5.468;2023-09-18T00:40:53;100385.47;;;20.52;94.93
68075;BME280;54864;52.002;5.468;2023-09-18T00:41:55;100388.56;;;20.57;94.79
68075;BME280;54864;52.002;5.468;2023-09-18T00:42:56;100392.94;;;20.58;94.44
68075;BME280;54864;52.002;5.468;2023-09-18T00:43:58;100397.44;;;20.58;94.34
68075;BME280;54864;52.002;5.468;2023-09-18T00:45:00;100389.25;;;20.60;94.18
68075;BME280;54864;52.002;5.468;2023-09-18T00:46:01;100385.03;;;20.57;94.18
68075;BME280;54864;52.002;5.468;2023-09-18T00:47:03;100378.84;;;20.56;94.19
68075;BME280;54864;52.002;5.468;2023-09-18T00:48:04;100378.00;;;20.56;94.29
68075;BME280;54864;52.002;5.468;2023-09-18T00:49:06;100365.28;;;20.58;94.19
68075;BME280;54864;52.002;5.468;2023-09-18T00:50:10;100362.75;;;20.56;94.17
68075;BME280;54864;52.002;5.468;2023-09-18T00:51:13;100367.41;;;20.54;94.39
68075;BME280;54864;52.002;5.468;2023-09-18T00:52:19;100360.50;;;20.52;95.02
68075;BME280;54864;52.002;5.468;2023-09-18T00:53:23;100355.59;;;20.47;95.35
68075;BME280;54864;52.002;5.468;2023-09-18T00:54:25;100354.16;;;20.53;94.80
68075;BME280;54864;52.002;5.468;2023-09-18T00:55:30;100346.31;;;20.42;95.67
68075;BME280;54864;52.002;5.468;2023-09-18T00:56:32;100348.69;;;20.45;95.85
68075;BME280;54864;52.002;5.468;2023-09-18T00:57:34;100340.38;;;20.48;95.80
68075;BME280;54864;52.002;5.468;2023-09-18T00:58:35;100337.00;;;20.46;96.41
68075;BME280;54864;52.002;5.468;2023-09-18T00:59:38;100340.50;;;20.46;96.90
68075;BME280;54864;52.002;5.468;2023-09-18T01:00:39;100333.88;;;20.50;97.04
68075;BME280;54864;52.002;5.468;2023-09-18T01:01:42;100324.00;;;20.51;96.38
68075;BME280;54864;52.002;5.468;2023-09-18T01:02:44;100330.75;;;20.55;96.14
68075;BME280;54864;52.002;5.468;2023-09-18T01:03:46;100329.06;;;20.54;95.97
68075;BME280;54864;52.002;5.468;2023-09-18T01:04:47;100330.91;;;20.53;96.18
68075;BME280;54864;52.002;5.468;2023-09-18T01:05:48;100320.59;;;20.58;95.47
68075;BME280;54864;52.002;5.468;2023-09-18T01:06:50;100320.75;;;20.57;95.57
68075;BME280;54864;52.002;5.468;2023-09-18T01:07:51;100317.09;;;20.58;95.78
68075;BME280;54864;52.002;5.468;2023-09-18T01:08:53;100312.00;;;20.55;96.27
68075;BME280;54864;52.002;5.468;2023-09-18T01:09:54;100306.91;;;20.62;95.93
68075;BME280;54864;52.002;5.468;2023-09-18T01:11:01;100309.75;;;20.60;95.60
68075;BME280;54864;52.002;5.468;2023-09-18T01:12:08;100304.78;;;20.65;95.02
68075;BME280;54864;52.002;5.468;2023-09-18T01:13:14;100305.38;;;20.59;94.66
68075;BME280;54864;52.002;5.468;2023-09-18T01:14:22;100297.75;;;20.64;95.81
68075;BME280;54864;52.002;5.468;2023-09-18T01:15:33;100301.66;;;20.70;96.29
68075;BME280;54864;52.002;5.468;2023-09-18T01:16:40;100292.78;;;20.69;96.36
68075;BME280;54864;52.002;5.468;2023-09-18T01:17:46;100298.88;;;20.62;97.31
68075;BME280;54864;52.002;5.468;2023-09-18T01:18:50;100308.75;;;20.61;97.21
68075;BME280;54864;52.002;5.468;2023-09-18T01:19:52;100295.75;;;20.66;96.95
68075;BME280;54864;52.002;5.468;2023-09-18T01:20:53;100300.81;;;20.69;96.64
68075;BME280;54864;52.002;5.468;2023-09-18T01:21:54;100300.41;;;20.64;96.92
68075;BME280;54864;52.002;5.468;2023-09-18T01:22:56;100295.22;;;20.63;96.97
68075;BME280;54864;52.002;5.468;2023-09-18T01:23:58;100295.91;;;20.65;97.37
68075;BME280;54864;52.002;5.468;2023-09-18T01:24:59;100285.50;;;20.62;98.05
68075;BME280;54864;52.002;5.468;2023-09-18T01:26:01;100278.75;;;20.57;98.38
68075;BME280;54864;52.002;5.468;2023-09-18T01:27:02;100283.22;;;20.67;97.78
68075;BME280;54864;52.002;5.468;2023-09-18T01:28:04;100275.06;;;20.58;98.44
68075;BME280;54864;52.002;5.468;2023-09-18T01:29:05;100267.03;;;20.58;98.95
68075;BME280;54864;52.002;5.468;2023-09-18T01:30:07;100267.59;;;20.62;99.00
68075;BME280;54864;52.002;5.468;2023-09-18T01:31:08;100253.50;;;20.60;98.98
68075;BME280;54864;52.002;5.468;2023-09-18T01:32:10;100253.88;;;20.65;98.68
68075;BME280;54864;52.002;5.468;2023-09-18T01:33:11;100263.81;;;20.55;98.80
68075;BME280;54864;52.002;5.468;2023-09-18T01:34:14;100252.66;;;20.60;98.82
68075;BME280;54864;52.002;5.468;2023-09-18T01:35:16;100252.22;;;20.64;99.16
68075;BME280;54864;52.002;5.468;2023-09-18T01:36:18;100251.06;;;20.67;99.06
68075;BME280;54864;52.002;5.468;2023-09-18T01:37:23;100250.75;;;20.70;99.06
68075;BME280;54864;52.002;5.468;2023-09-18T01:38:26;100243.44;;;20.72;98.71
68075;BME280;54864;52.002;5.468;2023-09-18T01:39:32;100242.63;;;20.62;99.78
68075;BME280;54864;52.002;5.468;2023-09-18T01:40:34;100242.19;;;20.66;99.52
68075;BME280;54864;52.002;5.468;2023-09-18T01:41:36;100234.41;;;20.73;98.88
68075;BME280;54864;52.002;5.468;2023-09-18T01:42:38;100237.78;;;20.75;98.27
68075;BME280;54864;52.002;5.468;2023-09-18T01:43:42;100239.16;;;20.79;97.76
68075;BME280;54864;52.002;5.468;2023-09-18T01:44:43;100238.31;;;20.78;97.73
68075;BME280;54864;52.002;5.468;2023-09-18T01:45:46;100228.75;;;20.76;98.04
68075;BME280;54864;52.002;5.468;2023-09-18T01:46:48;100230.13;;;20.80;98.14
68075;BME280;54864;52.002;5.468;2023-09-18T01:47:51;100235.47;;;20.80;98.14
68075;BME280;54864;52.002;5.468;2023-09-18T01:48:55;100239.59;;;20.84;97.78
68075;BME280;54864;52.002;5.468;2023-09-18T01:49:57;100242.97;;;20.86;97.85
68075;BME280;54864;52.002;5.468;2023-09-18T01:50:57;100247.19;;;20.79;98.30
68075;BME280;54864;52.002;5.468;2023-09-18T01:51:59;100248.31;;;20.86;98.57
68075;BME280;54864;52.002;5.468;2023-09-18T01:53:03;100252.53;;;20.88;98.45
68075;BME280;54864;52.002;5.468;2023-09-18T01:54:09;100259.13;;;20.94;98.05
68075;BME280;54864;52.002;5.468;2023-09-18T01:55:10;100252.63;;;20.97;97.30
68075;BME280;54864;52.002;5.468;2023-09-18T01:56:12;100254.31;;;20.98;97.34
68075;BME280;54864;52.002;5.468;2023-09-18T01:57:13;100239.44;;;20.85;97.69
68075;BME280;54864;52.002;5.468;2023-09-18T01:58:14;100261.13;;;20.92;98.17
68075;BME280;54864;52.002;5.468;2023-09-18T01:59:15;100268.16;;;20.93;98.44
68075;BME280;54864;52.002;5.468;2023-09-18T02:00:17;100261.91;;;21.02;97.64
68075;BME280;54864;52.002;5.468;2023-09-18T02:01:18;100269.34;;;21.08;96.67
68075;BME280;54864;52.002;5.468;2023-09-18T02:02:20;100266.50;;;21.10;95.81
68075;BME280;54864;52.002;5.468;2023-09-18T02:03:21;100271.41;;;21.14;95.87
68075;BME280;54864;52.002;5.468;2023-09-18T02:04:23;100270.97;;;21.19;95.54
68075;BME280;54864;52.002;5.468;2023-09-18T02:05:25;100273.22;;;21.24;95.11
68075;BME280;54864;52.002;5.468;2023-09-18T02:06:28;100273.22;;;21.24;95.10
68075;BME280;54864;52.002;5.468;2023-09-18T02:07:30;100279.28;;;21.26;94.85
68075;BME280;54864;52.002;5.468;2023-09-18T02:08:33;100275.75;;;21.25;95.06
68075;BME280;54864;52.002;5.468;2023-09-18T02:09:42;100274.44;;;21.29;94.95
68075;BME280;54864;52.002;5.468;2023-09-18T02:10:43;100275.00;;;21.33;94.64
68075;BME280;54864;52.002;5.468;2023-09-18T02:11:46;100266.25;;;21.31;93.99
68075;BME280;54864;52.002;5.468;2023-09-18T02:12:47;100264.81;;;21.36;93.68
68075;BME280;54864;52.002;5.468;2023-09-18T02:13:51;100269.47;;;21.34;93.15
68075;BME280;54864;52.002;5.468;2023-09-18T02:14:55;100275.16;;;21.31;93.27
68075;BME280;54864;52.002;5.468;2023-09-18T02:15:57;100272.63;;;21.30;93.48
68075;BME280;54864;52.002;5.468;2023-09-18T02:16:58;100280.97;;;21.27;93.75
68075;BME280;54864;52.002;5.468;2023-09-18T02:17:59;100267.72;;;21.25;94.16
68075;BME280;54864;52.002;5.468;2023-09-18T02:19:00;100266.88;;;21.25;94.55
68075;BME280;54864;52.002;5.468;2023-09-18T02:20:02;100270.09;;;21.28;94.21
68075;BME280;54864;52.002;5.468;2023-09-18T02:21:06;100272.22;;;21.25;94.32
68075;BME280;54864;52.002;5.468;2023-09-18T02:22:07;100272.91;;;21.27;94.04
68075;BME280;54864;52.002;5.468;2023-09-18T02:23:09;100270.25;;;21.27;94.01
68075;BME280;54864;52.002;5.468;2023-09-18T02:24:10;100258.97;;;21.23;94.03
68075;BME280;54864;52.002;5.468;2023-09-18T02:25:14;100255.56;;;21.21;94.73
68075;BME280;54864;52.002;5.468;2023-09-18T02:26:14;100259.50;;;21.27;94.18
68075;BME280;54864;52.002;5.468;2023-09-18T02:27:16;100254.69;;;21.30;93.71
68075;BME280;54864;52.002;5.468;2023-09-18T02:28:19;100245.66;;;21.31;92.92
68075;BME280;54864;52.002;5.468;2023-09-18T02:29:20;100246.34;;;21.33;92.59
68075;BME280;54864;52.002;5.468;2023-09-18T02:30:21;100238.69;;;21.38;92.11
68075;BME280;54864;52.002;5.468;2023-09-18T02:31:23;100243.34;;;21.36;92.03
68075;BME280;54864;52.002;5.468;2023-09-18T02:32:24;100239.44;;;21.31;92.69
68075;BME280;54864;52.002;5.468;2023-09-18T02:33:25;100239.28;;;21.32;92.63
68075;BME280;54864;52.002;5.468;2023-09-18T02:34:26;100240.59;;;21.28;93.00
68075;BME280;54864;52.002;5.468;2023-09-18T02:35:28;100235.91;;;21.30;92.67
68075;BME280;54864;52.002;5.468;2023-09-18T02:36:29;100231.41;;;21.31;92.54
68075;BME280;54864;52.002;5.468;2023-09-18T02:37:30;100232.09;;;21.33;92.07
68075;BME280;54864;52.002;5.468;2023-09-18T02:38:32;100226.25;;;21.37;91.37
68075;BME280;54864;52.002;5.468;2023-09-18T02:39:34;100223.19;;;21.32;91.04
68075;BME280;54864;52.002;5.468;2023-09-18T02:40:36;100222.50;;;21.30;91.05
68075;BME280;54864;52.002;5.468;2023-09-18T02:41:38;100227.03;;;21.30;91.20
68075;BME280;54864;52.002;5.468;2023-09-18T02:42:39;100212.97;;;21.18;92.17
68075;BME280;54864;52.002;5.468;2023-09-18T02:43:41;100224.50;;;21.28;91.66
68075;BME280;54864;52.002;5.468;2023-09-18T02:44:41;100215.75;;;21.26;91.16
68075;BME280;54864;52.002;5.468;2023-09-18T02:45:42;100216.44;;;21.28;90.92
68075;BME280;54864;52.002;5.468;2023-09-18T02:46:45;100208.94;;;21.32;90.87
68075;BME280;54864;52.002;5.468;2023-09-18T02:47:46;100205.03;;;21.26;90.83
68075;BME280;54864;52.002;5.468;2023-09-18T02:48:48;100197.31;;;21.23;90.91
68075;BME280;54864;52.002;5.468;2023-09-18T02:49:49;100206.47;;;21.20;91.14
68075;BME280;54864;52.002;5.468;2023-09-18T02:50:53;100193.78;;;21.23;91.15
68075;BME280;54864;52.002;5.468;2023-09-18T02:51:54;100192.38;;;21.18;91.23
68075;BME280;54864;52.002;5.468;2023-09-18T02:52:56;100192.63;;;21.25;91.06
68075;BME280;54864;52.002;5.468;2023-09-18T02:53:56;100191.94;;;21.23;91.06
68075;BME280;54864;52.002;5.468;2023-09-18T02:54:58;100186.41;;;21.25;90.65
68075;BME280;54864;52.002;5.468;2023-09-18T02:56:01;100183.19;;;21.21;90.92
68075;BME280;54864;52.002;5.468;2023-09-18T02:57:02;100176.69;;;21.24;90.90
68075;BME280;54864;52.002;5.468;2023-09-18T02:58:04;100168.78;;;21.22;90.58
68075;BME280;54864;52.002;5.468;2023-09-18T02:59:04;100167.66;;;21.25;90.52
68075;BME280;54864;52.002;5.468;2023-09-18T03:00:07;100161.28;;;21.26;90.21
68075;BME280;54864;52.002;5.468;2023-09-18T03:01:09;100157.09;;;21.23;90.12
68075;BME280;54864;52.002;5.468;2023-09-18T03:02:10;100148.31;;;21.21;90.28
68075;BME280;54864;52.002;5.468;2023-09-18T03:03:12;100148.03;;;21.24;90.16
68075;BME280;54864;52.002;5.468;2023-09-18T03:04:13;100143.53;;;21.25;90.03
68075;BME280;54864;52.002;5.468;2023-09-18T03:05:14;100135.63;;;21.23;90.11
68075;BME280;54864;52.002;5.468;2023-09-18T03:06:16;100129.56;;;21.21;90.22
68075;BME280;54864;52.002;5.468;2023-09-18T03:07:17;100137.75;;;21.19;90.41
68075;BME280;54864;52.002;5.468;2023-09-18T03:08:18;100134.06;;;21.20;89.99
68075;BME280;54864;52.002;5.468;2023-09-18T03:09:19;100131.13;;;21.24;90.09
68075;BME280;54864;52.002;5.468;2023-09-18T03:10:21;100133.91;;;21.22;90.27
68075;BME280;54864;52.002;5.468;2023-09-18T03:11:23;100132.78;;;21.25;89.84
68075;BME280;54864;52.002;5.468;2023-09-18T03:12:27;100134.78;;;21.23;89.89
68075;BME280;54864;52.002;5.468;2023-09-18T03:13:30;100139.53;;;21.11;90.16
68075;BME280;54864;52.002;5.468;2023-09-18T03:14:31;100138.38;;;21.13;90.95
68075;BME280;54864;52.002;5.468;2023-09-18T03:15:33;100140.28;;;21.03;91.55
68075;BME280;54864;52.002;5.468;2023-09-18T03:16:34;100144.34;;;21.07;91.52
68075;BME280;54864;52.002;5.468;2023-09-18T03:17:36;100140.22;;;21.13;91.31
68075;BME280;54864;52.002;5.468;2023-09-18T03:18:37;100136.38;;;21.15;91.06
68075;BME280;54864;52.002;5.468;2023-09-18T03:19:39;100131.16;;;21.14;91.03
68075;BME280;54864;52.002;5.468;2023-09-18T03:20:39;100136.38;;;21.15;90.87
68075;BME280;54864;52.002;5.468;2023-09-18T03:21:44;100130.72;;;21.18;90.36
68075;BME280;54864;52.002;5.468;2023-09-18T03:22:45;100129.72;;;21.19;90.15
68075;BME280;54864;52.002;5.468;2023-09-18T03:23:47;100129.56;;;21.21;89.92
68075;BME280;54864;52.002;5.468;2023-09-18T03:24:48;100128.88;;;21.19;89.89
68075;BME280;54864;52.002;5.468;2023-09-18T03:25:49;100127.34;;;21.16;89.93
68075;BME280;54864;52.002;5.468;2023-09-18T03:26:52;100134.22;;;21.19;89.88
68075;BME280;54864;52.002;5.468;2023-09-18T03:27:54;100126.13;;;21.11;90.19
68075;BME280;54864;52.002;5.468;2023-09-18T03:28:55;100132.84;;;21.15;90.27
68075;BME280;54864;52.002;5.468;2023-09-18T03:29:56;100144.78;;;21.20;89.65
68075;BME280;54864;52.002;5.468;2023-09-18T03:30:58;100144.09;;;21.18;89.84
68075;BME280;54864;52.002;5.468;2023-09-18T03:31:59;100134.69;;;21.14;90.09
68075;BME280;54864;52.002;5.468;2023-09-18T03:33:00;100138.22;;;21.15;90.41
68075;BME280;54864;52.002;5.468;2023-09-18T03:34:01;100137.06;;;21.17;90.01
68075;BME280;54864;52.002;5.468;2023-09-18T03:35:23;100142.28;;;21.19;90.16
68075;BME280;54864;52.002;5.468;2023-09-18T03:36:24;100135.22;;;21.18;90.28
68075;BME280;54864;52.002;5.468;2023-09-18T03:37:26;100145.78;;;21.19;90.15
68075;BME280;54864;52.002;5.468;2023-09-18T03:38:27;100138.59;;;21.20;90.44
68075;BME280;54864;52.002;5.468;2023-09-18T03:39:30;100137.75;;;21.19;89.96
68075;BME280;54864;52.002;5.468;2023-09-18T03:40:31;100137.47;;;21.23;89.83
68075;BME280;54864;52.002;5.468;2023-09-18T03:41:33;100146.47;;;21.21;89.85
68075;BME280;54864;52.002;5.468;2023-09-18T03:42:36;100144.66;;;21.22;89.57
68075;BME280;54864;52.002;5.468;2023-09-18T03:43:50;100156.38;;;21.21;89.68
68075;BME280;54864;52.002;5.468;2023-09-18T03:44:51;100156.53;;;21.19;90.03
68075;BME280;54864;52.002;5.468;2023-09-18T03:45:53;100163.03;;;21.17;90.25
68075;BME280;54864;52.002;5.468;2023-09-18T03:46:53;100162.72;;;21.20;90.19
68075;BME280;54864;52.002;5.468;2023-09-18T03:47:55;100169.09;;;21.19;90.06
68075;BME280;54864;52.002;5.468;2023-09-18T03:48:56;100162.72;;;21.20;90.20
68075;BME280;54864;52.002;5.468;2023-09-18T03:49:58;100159.03;;;21.21;89.89
68075;BME280;54864;52.002;5.468;2023-09-18T03:51:02;100157.22;;;21.21;89.77
68075;BME280;54864;52.002;5.468;2023-09-18T03:52:18;100156.25;;;21.23;89.44
68075;BME280;54864;52.002;5.468;2023-09-18T03:53:19;100154.69;;;21.20;89.37
68075;BME280;54864;52.002;5.468;2023-09-18T03:54:21;100154.84;;;21.18;89.53
68075;BME280;54864;52.002;5.468;2023-09-18T03:55:22;100152.00;;;21.20;89.52
68075;BME280;54864;52.002;5.468;2023-09-18T03:56:24;100151.00;;;21.21;89.50
68075;BME280;54864;52.002;5.468;2023-09-18T03:57:25;100140.44;;;21.19;89.49
68075;BME280;54864;52.002;5.468;2023-09-18T03:58:28;100138.59;;;21.20;89.35
68075;BME280;54864;52.002;5.468;2023-09-18T03:59:29;100131.38;;;21.20;89.40
68075;BME280;54864;52.002;5.468;2023-09-18T04:00:30;100124.06;;;21.23;89.24
68075;BME280;54864;52.002;5.468;2023-09-18T04:01:31;100130.41;;;21.21;89.35
68075;BME280;54864;52.002;5.468;2023-09-18T04:02:33;100127.72;;;21.21;89.16
68075;BME280;54864;52.002;5.468;2023-09-18T04:03:34;100127.03;;;21.19;89.08
68075;BME280;54864;52.002;5.468;2023-09-18T04:04:37;100120.81;;;21.19;89.11
68075;BME280;54864;52.002;5.468;2023-09-18T04:05:38;100119.81;;;21.20;89.04
68075;BME280;54864;52.002;5.468;2023-09-18T04:06:41;100118.00;;;21.20;89.03
68075;BME280;54864;52.002;5.468;2023-09-18T04:07:43;100117.31;;;21.18;89.14
68075;BME280;54864;52.002;5.468;2023-09-18T04:08:46;100107.56;;;21.17;89.26
68075;BME280;54864;52.002;5.468;2023-09-18T04:09:47;100116.47;;;21.18;89.20
68075;BME280;54864;52.002;5.468;2023-09-18T04:10:49;100114.78;;;21.17;88.94
68075;BME280;54864;52.002;5.468;2023-09-18T04:11:50;100113.78;;;21.18;89.00
68075;BME280;54864;52.002;5.468;2023-09-18T04:12:52;100116.47;;;21.18;88.92
68075;BME280;54864;52.002;5.468;2023-09-18T04:14:01;100114.94;;;21.15;88.99
68075;BME280;54864;52.002;5.468;2023-09-18T04:15:04;100112.41;;;21.14;89.07
68075;BME280;54864;52.002;5.468;2023-09-18T04:16:05;100110.56;;;21.14;88.96
68075;BME280;54864;52.002;5.468;2023-09-18T04:17:08;100099.84;;;21.14;88.65
68075;BME280;54864;52.002;5.468;2023-09-18T04:18:09;100105.03;;;21.16;88.58
68075;BME280;54864;52.002;5.468;2023-09-18T04:19:11;100100.00;;;21.13;88.96
68075;BME280;54864;52.002;5.468;2023-09-18T04:20:12;100102.69;;;21.13;88.89
68075;BME280;54864;52.002;5.468;2023-09-18T04:21:14;100096.47;;;21.12;88.88
68075;BME280;54864;52.002;5.468;2023-09-18T04:22:15;100087.59;;;21.12;88.72
68075;BME280;54864;52.002;5.468;2023-09-18T04:23:21;100077.88;;;21.11;88.64
68075;BME280;54864;52.002;5.468;2023-09-18T04:24:22;100076.19;;;21.10;88.63
68075;BME280;54864;52.002;5.468;2023-09-18T04:25:23;100062.03;;;21.00;89.38
68075;BME280;54864;52.002;5.468;2023-09-18T04:26:27;100063.09;;;21.07;89.40
68075;BME280;54864;52.002;5.468;2023-09-18T04:27:30;100068.97;;;21.10;89.38
68075;BME280;54864;52.002;5.468;2023-09-18T04:28:31;100068.28;;;21.08;89.74
68075;BME280;54864;52.002;5.468;2023-09-18T04:29:33;100079.84;;;21.09;89.99
68075;BME280;54864;52.002;5.468;2023-09-18T04:30:36;100072.50;;;21.11;89.84
68075;BME280;54864;52.002;5.468;2023-09-18T04:31:36;100058.25;;;21.10;89.91
68075;BME280;54864;52.002;5.468;2023-09-18T04:32:40;100056.41;;;21.11;89.93
68075;BME280;54864;52.002;5.468;2023-09-18T04:33:41;100054.41;;;21.13;89.83
68075;BME280;54864;52.002;5.468;2023-09-18T04:34:42;100049.75;;;21.15;89.59
68075;BME280;54864;52.002;5.468;2023-09-18T04:35:44;100061.16;;;21.17;89.52
68075;BME280;54864;52.002;5.468;2023-09-18T04:36:46;100054.28;;;21.14;89.58
68075;BME280;54864;52.002;5.468;2023-09-18T04:37:49;100063.31;;;21.13;89.75
68075;BME280;54864;52.002;5.468;2023-09-18T04:38:51;100061.41;;;21.06;90.57
68075;BME280;54864;52.002;5.468;2023-09-18T04:39:52;100070.97;;;21.08;91.08
68075;BME280;54864;52.002;5.468;2023-09-18T04:40:58;100079.31;;;21.05;91.87
68075;BME280;54864;52.002;5.468;2023-09-18T04:41:58;100088.75;;;21.09;91.95
68075;BME280;54864;52.002;5.468;2023-09-18T04:43:03;100089.44;;;21.11;91.88
68075;BME280;54864;52.002;5.468;2023-09-18T04:44:04;100100.84;;;21.13;92.04
68075;BME280;54864;52.002;5.468;2023-09-18T04:45:09;100103.28;;;21.07;93.00
68075;BME280;54864;52.002;5.468;2023-09-18T04:46:10;100113.34;;;21.05;93.71
68075;BME280;54864;52.002;5.468;2023-09-18T04:47:11;100111.66;;;21.04;94.18
68075;BME280;54864;52.002;5.468;2023-09-18T04:48:12;100123.53;;;21.01;94.74
68075;BME280;54864;52.002;5.468;2023-09-18T04:49:14;100138.22;;;20.97;95.29
68075;BME280;54864;52.002;5.468;2023-09-18T04:50:16;100145.50;;;20.87;96.48
68075;BME280;54864;52.002;5.468;2023-09-18T04:51:18;100136.50;;;20.78;98.17
68075;BME280;54864;52.002;5.468;2023-09-18T04:52:21;100129.44;;;20.77;98.87
68075;BME280;54864;52.002;5.468;2023-09-18T04:53:22;100128.91;;;20.74;100.00
68075;BME280;54864;52.002;5.468;2023-09-18T04:54:23;100139.09;;;20.70;100.00
68075;BME280;54864;52.002;5.468;2023-09-18T04:55:25;100144.22;;;20.64;100.00
68075;BME280;54864;52.002;5.468;2023-09-18T04:56:26;100130.88;;;20.54;100.00
68075;BME280;54864;52.002;5.468;2023-09-18T04:57:27;100118.34;;;20.54;100.00
68075;BME280;54864;52.002;5.468;2023-09-18T04:58:30;100105.34;;;20.60;100.00
68075;BME280;54864;52.002;5.468;2023-09-18T04:59:31;100100.13;;;20.58;100.00
68075;BME280;54864;52.002;5.468;2023-09-18T05:00:34;100087.50;;;20.50;100.00
68075;BME280;54864;52.002;5.468;2023-09-18T05:01:35;100089.66;;;20.65;100.00
68075;BME280;54864;52.002;5.468;2023-09-18T05:02:37;100082.84;;;20.70;100.00
68075;BME280;54864;52.002;5.468;2023-09-18T05:03:37;100077.25;;;20.64;100.00
68075;BME280;54864;52.002;5.468;2023-09-18T05:04:39;100074.19;;;20.58;100.00
68075;BME280;54864;52.002;5.468;2023-09-18T05:05:43;100072.50;;;20.57;100.00
68075;BME280;54864;52.002;5.468;2023-09-18T05:06:44;100078.47;;;20.69;100.00
68075;BME280;54864;52.002;5.468;2023-09-18T05:07:45;100087.19;;;20.71;100.00
68075;BME280;54864;52.002;5.468;2023-09-18T05:08:50;100087.59;;;20.76;100.00
68075;BME280;54864;52.002;5.468;2023-09-18T05:09:52;100094.78;;;20.76;100.00
68075;BME280;54864;52.002;5.468;2023-09-18T05:10:53;100089.13;;;20.79;100.00
68075;BME280;54864;52.002;5.468;2023-09-18T05:11:55;100095.41;;;20.87;100.00
68075;BME280;54864;52.002;5.468;2023-09-18T05:12:56;100092.97;;;20.94;100.00
68075;BME280;54864;52.002;5.468;2023-09-18T05:13:59;100105.28;;;21.05;100.00
68075;BME280;54864;52.002;5.468;2023-09-18T05:15:00;100087.38;;;21.05;100.00
68075;BME280;54864;52.002;5.468;2023-09-18T05:16:06;100076.19;;;21.10;100.00
68075;BME280;54864;52.002;5.468;2023-09-18T05:17:10;100074.03;;;21.13;100.00
68075;BME280;54864;52.002;5.468;2023-09-18T05:18:12;100078.41;;;21.14;100.00
68075;BME280;54864;52.002;5.468;2023-09-18T05:19:22;100070.88;;;21.18;100.00
68075;BME280;54864;52.002;5.468;2023-09-18T05:20:25;100071.28;;;21.23;100.00
68075;BME280;54864;52.002;5.468;2023-09-18T05:21:27;100067.28;;;21.27;100.00
68075;BME280;54864;52.002;5.468;2023-09-18T05:22:28;100067.44;;;21.26;99.68
68075;BME280;54864;52.002;5.468;2023-09-18T05:23:29;100057.88;;;21.23;100.00
68075;BME280;54864;52.002;5.468;2023-09-18T05:24:31;100068.97;;;21.28;99.79
68075;BME280;54864;52.002;5.468;2023-09-18T05:25:33;100058.78;;;21.32;99.17